sensor_id;sensor_type;location;lat;lon;timestamp;P1;durP1;ratioP1;P2;durP2;ratioP2
3004;SDS011;1512;51.486;6.610;2023-02-24T00:03:47;6.60;;;3.20;;
3004;SDS011;1512;51.486;6.610;2023-02-24T00:12:24;5.97;;;3.93;;
3004;SDS011;1512;51.486;6.610;2023-02-24T00:16:33;7.10;;;3.23;;
3004;SDS011;1512;51.486;6.610;2023-02-24T00:25:14;7.20;;;3.10;;
3004;SDS011;1512;51.486;6.610;2023-02-24T00:29:22;8.43;;;3.77;;
3004;SDS011;1512;51.486;6.610;2023-02-24T00:33:32;18.93;;;4.20;;
3004;SDS011;1512;51.486;6.610;2023-02-24T00:37:41;10.57;;;5.33;;
3004;SDS011;1512;51.486;6.610;2023-02-24T00:41:49;11.43;;;4.73;;
3004;SDS011;1512;51.486;6.610;2023-02-24T00:45:58;12.03;;;4.00;;
3004;SDS011;1512;51.486;6.610;2023-02-24T00:50:08;6.27;;;3.63;;
3004;SDS011;1512;51.486;6.610;2023-02-24T00:54:19;8.77;;;3.10;;
3004;SDS011;1512;51.486;6.610;2023-02-24T00:58:29;11.10;;;3.53;;
3004;SDS011;1512;51.486;6.610;2023-02-24T01:02:38;8.87;;;3.60;;
3004;SDS011;1512;51.486;6.610;2023-02-24T01:06:47;11.90;;;4.73;;
3004;SDS011;1512;51.486;6.610;2023-02-24T01:10:58;5.73;;;3.33;;
3004;SDS011;1512;51.486;6.610;2023-02-24T01:15:26;8.67;;;3.40;;
3004;SDS011;1512;51.486;6.610;2023-02-24T01:19:35;6.07;;;4.17;;
3004;SDS011;1512;51.486;6.610;2023-02-24T01:23:47;7.73;;;3.57;;
3004;SDS011;1512;51.486;6.610;2023-02-24T01:28:16;8.53;;;4.87;;
3004;SDS011;1512;51.486;6.610;2023-02-24T01:32:25;11.87;;;4.60;;
3004;SDS011;1512;51.486;6.610;2023-02-24T01:36:35;7.40;;;3.47;;
3004;SDS011;1512;51.486;6.610;2023-02-24T01:45:15;10.60;;;5.00;;
3004;SDS011;1512;51.486;6.610;2023-02-24T01:49:35;18.77;;;3.60;;
3004;SDS011;1512;51.486;6.610;2023-02-24T01:53:49;16.87;;;3.90;;
3004;SDS011;1512;51.486;6.610;2023-02-24T01:57:59;7.10;;;3.67;;
3004;SDS011;1512;51.486;6.610;2023-02-24T02:02:10;7.50;;;3.50;;
3004;SDS011;1512;51.486;6.610;2023-02-24T02:06:20;11.70;;;5.13;;
3004;SDS011;1512;51.486;6.610;2023-02-24T02:10:29;4.87;;;3.20;;
3004;SDS011;1512;51.486;6.610;2023-02-24T02:14:40;14.90;;;5.43;;
3004;SDS011;1512;51.486;6.610;2023-02-24T02:28:01;21.60;;;4.23;;
3004;SDS011;1512;51.486;6.610;2023-02-24T02:46:10;6.97;;;3.87;;
3004;SDS011;1512;51.486;6.610;2023-02-24T02:50:22;8.90;;;3.70;;
3004;SDS011;1512;51.486;6.610;2023-02-24T02:54:42;12.00;;;4.47;;
3004;SDS011;1512;51.486;6.610;2023-02-24T02:58:54;8.17;;;4.37;;
3004;SDS011;1512;51.486;6.610;2023-02-24T03:03:08;8.80;;;3.27;;
3004;SDS011;1512;51.486;6.610;2023-02-24T03:07:21;9.43;;;4.60;;
3004;SDS011;1512;51.486;6.610;2023-02-24T03:11:35;12.53;;;3.80;;
3004;SDS011;1512;51.486;6.610;2023-02-24T03:20:11;7.53;;;4.67;;
3004;SDS011;1512;51.486;6.610;2023-02-24T03:24:29;4.13;;;3.60;;
3004;SDS011;1512;51.486;6.610;2023-02-24T03:28:41;12.03;;;5.40;;
3004;SDS011;1512;51.486;6.610;2023-02-24T03:33:19;7.20;;;4.90;;
3004;SDS011;1512;51.486;6.610;2023-02-24T03:37:32;6.20;;;3.90;;
3004;SDS011;1512;51.486;6.610;2023-02-24T03:41:48;9.40;;;4.97;;
3004;SDS011;1512;51.486;6.610;2023-02-24T03:45:54;22.43;;;4.60;;
3004;SDS011;1512;51.486;6.610;2023-02-24T03:50:11;6.10;;;4.47;;
3004;SDS011;1512;51.486;6.610;2023-02-24T03:54:29;7.70;;;4.57;;
3004;SDS011;1512;51.486;6.610;2023-02-24T03:58:42;7.17;;;5.20;;
3004;SDS011;1512;51.486;6.610;2023-02-24T04:03:01;5.30;;;3.90;;
3004;SDS011;1512;51.486;6.610;2023-02-24T04:07:56;9.47;;;4.87;;
3004;SDS011;1512;51.486;6.610;2023-02-24T04:12:10;17.23;;;4.20;;
3004;SDS011;1512;51.486;6.610;2023-02-24T04:16:33;10.50;;;4.87;;
3004;SDS011;1512;51.486;6.610;2023-02-24T04:20:48;16.80;;;4.70;;
3004;SDS011;1512;51.486;6.610;2023-02-24T04:29:31;12.87;;;4.80;;
3004;SDS011;1512;51.486;6.610;2023-02-24T04:33:43;6.43;;;4.47;;
3004;SDS011;1512;51.486;6.610;2023-02-24T04:37:59;15.53;;;5.67;;
3004;SDS011;1512;51.486;6.610;2023-02-24T04:42:07;10.60;;;4.23;;
3004;SDS011;1512;51.486;6.610;2023-02-24T04:46:17;12.03;;;4.30;;
3004;SDS011;1512;51.486;6.610;2023-02-24T04:50:32;14.53;;;5.20;;
3004;SDS011;1512;51.486;6.610;2023-02-24T04:54:37;6.63;;;4.40;;
3004;SDS011;1512;51.486;6.610;2023-02-24T04:58:46;12.20;;;4.80;;
3004;SDS011;1512;51.486;6.610;2023-02-24T05:02:55;7.20;;;4.43;;
3004;SDS011;1512;51.486;6.610;2023-02-24T05:07:03;7.60;;;4.50;;
3004;SDS011;1512;51.486;6.610;2023-02-24T05:11:15;9.93;;;4.80;;
3004;SDS011;1512;51.486;6.610;2023-02-24T05:15:26;4.30;;;3.40;;
3004;SDS011;1512;51.486;6.610;2023-02-24T05:19:38;6.17;;;3.47;;
3004;SDS011;1512;51.486;6.610;2023-02-24T05:24:05;7.37;;;4.60;;
3004;SDS011;1512;51.486;6.610;2023-02-24T05:32:43;4.80;;;4.30;;
3004;SDS011;1512;51.486;6.610;2023-02-24T05:36:51;5.77;;;4.53;;
3004;SDS011;1512;51.486;6.610;2023-02-24T05:41:07;9.17;;;3.90;;
3004;SDS011;1512;51.486;6.610;2023-02-24T05:45:22;10.90;;;4.40;;
3004;SDS011;1512;51.486;6.610;2023-02-24T05:49:33;7.67;;;4.13;;
3004;SDS011;1512;51.486;6.610;2023-02-24T05:53:44;5.53;;;4.23;;
3004;SDS011;1512;51.486;6.610;2023-02-24T05:57:54;9.03;;;3.57;;
3004;SDS011;1512;51.486;6.610;2023-02-24T06:02:04;4.70;;;3.90;;
3004;SDS011;1512;51.486;6.610;2023-02-24T06:06:18;6.70;;;3.10;;
3004;SDS011;1512;51.486;6.610;2023-02-24T06:10:29;8.03;;;4.80;;
3004;SDS011;1512;51.486;6.610;2023-02-24T06:14:39;10.03;;;3.93;;
3004;SDS011;1512;51.486;6.610;2023-02-24T06:18:48;7.60;;;4.10;;
3004;SDS011;1512;51.486;6.610;2023-02-24T06:22:56;6.40;;;3.10;;
3004;SDS011;1512;51.486;6.610;2023-02-24T06:27:05;16.80;;;4.60;;
3004;SDS011;1512;51.486;6.610;2023-02-24T06:31:16;7.67;;;3.83;;
3004;SDS011;1512;51.486;6.610;2023-02-24T06:35:27;6.20;;;3.87;;
3004;SDS011;1512;51.486;6.610;2023-02-24T06:39:36;10.43;;;3.50;;
3004;SDS011;1512;51.486;6.610;2023-02-24T06:43:45;4.97;;;3.50;;
3004;SDS011;1512;51.486;6.610;2023-02-24T06:47:54;8.50;;;3.67;;
3004;SDS011;1512;51.486;6.610;2023-02-24T06:52:03;6.80;;;3.70;;
3004;SDS011;1512;51.486;6.610;2023-02-24T06:56:13;7.50;;;3.80;;
3004;SDS011;1512;51.486;6.610;2023-02-24T07:00:26;5.60;;;3.90;;
3004;SDS011;1512;51.486;6.610;2023-02-24T07:04:45;3.17;;;2.87;;
3004;SDS011;1512;51.486;6.610;2023-02-24T07:08:56;4.83;;;3.93;;
3004;SDS011;1512;51.486;6.610;2023-02-24T07:13:05;8.00;;;3.57;;
3004;SDS011;1512;51.486;6.610;2023-02-24T07:17:15;6.23;;;3.00;;
3004;SDS011;1512;51.486;6.610;2023-02-24T07:21:29;5.73;;;3.30;;
3004;SDS011;1512;51.486;6.610;2023-02-24T07:25:40;7.93;;;3.50;;
3004;SDS011;1512;51.486;6.610;2023-02-24T07:29:51;5.03;;;4.53;;
3004;SDS011;1512;51.486;6.610;2023-02-24T07:34:00;4.50;;;3.47;;
3004;SDS011;1512;51.486;6.610;2023-02-24T07:38:08;5.70;;;3.30;;
3004;SDS011;1512;51.486;6.610;2023-02-24T07:42:19;9.23;;;3.90;;
3004;SDS011;1512;51.486;6.610;2023-02-24T07:46:28;14.27;;;3.37;;
3004;SDS011;1512;51.486;6.610;2023-02-24T07:50:39;8.27;;;3.13;;
3004;SDS011;1512;51.486;6.610;2023-02-24T07:54:48;3.37;;;2.97;;
3004;SDS011;1512;51.486;6.610;2023-02-24T07:58:57;15.03;;;3.70;;
3004;SDS011;1512;51.486;6.610;2023-02-24T08:07:43;5.10;;;2.87;;
3004;SDS011;1512;51.486;6.610;2023-02-24T08:11:55;3.10;;;2.67;;
3004;SDS011;1512;51.486;6.610;2023-02-24T08:16:04;7.60;;;3.27;;
3004;SDS011;1512;51.486;6.610;2023-02-24T08:20:13;3.10;;;2.80;;
3004;SDS011;1512;51.486;6.610;2023-02-24T08:24:24;13.10;;;3.90;;
3004;SDS011;1512;51.486;6.610;2023-02-24T08:28:34;4.93;;;3.23;;
3004;SDS011;1512;51.486;6.610;2023-02-24T08:32:44;8.60;;;3.20;;
3004;SDS011;1512;51.486;6.610;2023-02-24T08:36:55;6.10;;;3.10;;
3004;SDS011;1512;51.486;6.610;2023-02-24T08:41:04;9.30;;;3.17;;
3004;SDS011;1512;51.486;6.610;2023-02-24T08:45:14;10.13;;;3.80;;
3004;SDS011;1512;51.486;6.610;2023-02-24T08:49:23;4.50;;;2.90;;
3004;SDS011;1512;51.486;6.610;2023-02-24T08:53:34;6.80;;;3.30;;
3004;SDS011;1512;51.486;6.610;2023-02-24T08:57:45;5.23;;;2.97;;
3004;SDS011;1512;51.486;6.610;2023-02-24T09:01:57;4.13;;;2.87;;
3004;SDS011;1512;51.486;6.610;2023-02-24T09:06:43;7.80;;;2.90;;
3004;SDS011;1512;51.486;6.610;2023-02-24T09:10:53;13.07;;;2.97;;
3004;SDS011;1512;51.486;6.610;2023-02-24T09:15:02;20.20;;;3.37;;
3004;SDS011;1512;51.486;6.610;2023-02-24T09:19:13;13.63;;;5.13;;
3004;SDS011;1512;51.486;6.610;2023-02-24T09:23:23;6.00;;;3.83;;
3004;SDS011;1512;51.486;6.610;2023-02-24T09:31:56;3.50;;;2.97;;
3004;SDS011;1512;51.486;6.610;2023-02-24T09:45:08;7.43;;;2.97;;
3004;SDS011;1512;51.486;6.610;2023-02-24T09:49:19;4.53;;;3.20;;
3004;SDS011;1512;51.486;6.610;2023-02-24T09:53:31;8.50;;;3.87;;
3004;SDS011;1512;51.486;6.610;2023-02-24T10:07:07;10.47;;;3.80;;
3004;SDS011;1512;51.486;6.610;2023-02-24T10:11:25;2.57;;;2.37;;
3004;SDS011;1512;51.486;6.610;2023-02-24T10:15:43;10.30;;;3.37;;
3004;SDS011;1512;51.486;6.610;2023-02-24T10:20:14;6.97;;;3.57;;
3004;SDS011;1512;51.486;6.610;2023-02-24T10:24:36;5.17;;;2.67;;
3004;SDS011;1512;51.486;6.610;2023-02-24T10:28:57;9.83;;;4.37;;
3004;SDS011;1512;51.486;6.610;2023-02-24T10:33:03;4.37;;;2.87;;
3004;SDS011;1512;51.486;6.610;2023-02-24T10:37:22;5.13;;;3.53;;
3004;SDS011;1512;51.486;6.610;2023-02-24T10:41:45;4.27;;;3.60;;
3004;SDS011;1512;51.486;6.610;2023-02-24T10:46:01;8.43;;;2.90;;
3004;SDS011;1512;51.486;6.610;2023-02-24T10:50:20;3.20;;;2.47;;
3004;SDS011;1512;51.486;6.610;2023-02-24T10:54:30;12.60;;;2.80;;
3004;SDS011;1512;51.486;6.610;2023-02-24T10:58:43;8.30;;;3.53;;
3004;SDS011;1512;51.486;6.610;2023-02-24T11:02:53;3.83;;;3.37;;
3004;SDS011;1512;51.486;6.610;2023-02-24T11:07:15;4.70;;;4.30;;
3004;SDS011;1512;51.486;6.610;2023-02-24T11:11:29;2.93;;;2.70;;
3004;SDS011;1512;51.486;6.610;2023-02-24T11:15:46;10.70;;;3.80;;
3004;SDS011;1512;51.486;6.610;2023-02-24T11:24:27;8.20;;;3.93;;
3004;SDS011;1512;51.486;6.610;2023-02-24T11:46:32;6.13;;;3.30;;
3004;SDS011;1512;51.486;6.610;2023-02-24T12:04:45;5.17;;;3.00;;
3004;SDS011;1512;51.486;6.610;2023-02-24T12:22:16;8.30;;;4.13;;
3004;SDS011;1512;51.486;6.610;2023-02-24T12:26:35;12.40;;;5.63;;
3004;SDS011;1512;51.486;6.610;2023-02-24T12:35:32;7.07;;;4.23;;
3004;SDS011;1512;51.486;6.610;2023-02-24T12:40:08;5.10;;;4.03;;
3004;SDS011;1512;51.486;6.610;2023-02-24T12:44:25;10.70;;;4.47;;
3004;SDS011;1512;51.486;6.610;2023-02-24T13:02:38;7.30;;;5.27;;
3004;SDS011;1512;51.486;6.610;2023-02-24T13:11:30;9.27;;;4.17;;
3004;SDS011;1512;51.486;6.610;2023-02-24T13:15:47;8.57;;;5.87;;
3004;SDS011;1512;51.486;6.610;2023-02-24T13:20:08;13.10;;;5.70;;
3004;SDS011;1512;51.486;6.610;2023-02-24T13:24:20;14.20;;;5.87;;
3004;SDS011;1512;51.486;6.610;2023-02-24T13:28:32;7.47;;;5.37;;
3004;SDS011;1512;51.486;6.610;2023-02-24T13:32:44;9.00;;;5.87;;
3004;SDS011;1512;51.486;6.610;2023-02-24T13:36:55;12.77;;;5.53;;
3004;SDS011;1512;51.486;6.610;2023-02-24T13:41:20;14.30;;;6.57;;
3004;SDS011;1512;51.486;6.610;2023-02-24T13:45:37;8.33;;;5.00;;
3004;SDS011;1512;51.486;6.610;2023-02-24T13:54:13;7.33;;;5.83;;
3004;SDS011;1512;51.486;6.610;2023-02-24T13:58:48;19.43;;;6.77;;
3004;SDS011;1512;51.486;6.610;2023-02-24T14:03:24;7.87;;;5.13;;
3004;SDS011;1512;51.486;6.610;2023-02-24T14:07:31;7.95;;;4.75;;
3004;SDS011;1512;51.486;6.610;2023-02-24T14:11:42;10.10;;;6.73;;
3004;SDS011;1512;51.486;6.610;2023-02-24T14:20:21;11.13;;;6.50;;
3004;SDS011;1512;51.486;6.610;2023-02-24T14:24:30;7.37;;;6.03;;
3004;SDS011;1512;51.486;6.610;2023-02-24T14:28:39;11.53;;;6.87;;
3004;SDS011;1512;51.486;6.610;2023-02-24T14:32:49;10.80;;;5.80;;
3004;SDS011;1512;51.486;6.610;2023-02-24T14:36:59;11.23;;;6.57;;
3004;SDS011;1512;51.486;6.610;2023-02-24T14:41:18;10.13;;;5.13;;
3004;SDS011;1512;51.486;6.610;2023-02-24T14:45:33;11.60;;;6.37;;
3004;SDS011;1512;51.486;6.610;2023-02-24T14:58:42;6.50;;;4.87;;
3004;SDS011;1512;51.486;6.610;2023-02-24T15:02:54;9.90;;;5.60;;
3004;SDS011;1512;51.486;6.610;2023-02-24T15:07:06;7.50;;;6.17;;
3004;SDS011;1512;51.486;6.610;2023-02-24T15:15:29;8.40;;;7.47;;
3004;SDS011;1512;51.486;6.610;2023-02-24T15:19:42;6.90;;;4.70;;
3004;SDS011;1512;51.486;6.610;2023-02-24T15:24:00;11.40;;;6.43;;
3004;SDS011;1512;51.486;6.610;2023-02-24T15:32:36;11.20;;;7.33;;
3004;SDS011;1512;51.486;6.610;2023-02-24T15:36:45;7.10;;;5.00;;
3004;SDS011;1512;51.486;6.610;2023-02-24T15:40:58;4.50;;;4.10;;
3004;SDS011;1512;51.486;6.610;2023-02-24T15:49:37;5.73;;;5.10;;
3004;SDS011;1512;51.486;6.610;2023-02-24T15:53:45;8.40;;;5.37;;
3004;SDS011;1512;51.486;6.610;2023-02-24T15:58:01;9.37;;;4.57;;
3004;SDS011;1512;51.486;6.610;2023-02-24T16:02:15;6.37;;;4.70;;
3004;SDS011;1512;51.486;6.610;2023-02-24T16:06:23;5.97;;;4.73;;
3004;SDS011;1512;51.486;6.610;2023-02-24T16:10:34;10.47;;;4.30;;
3004;SDS011;1512;51.486;6.610;2023-02-24T16:14:42;18.17;;;4.40;;
3004;SDS011;1512;51.486;6.610;2023-02-24T16:18:51;12.20;;;3.93;;
3004;SDS011;1512;51.486;6.610;2023-02-24T16:23:01;7.00;;;3.70;;
3004;SDS011;1512;51.486;6.610;2023-02-24T16:27:21;4.87;;;3.83;;
3004;SDS011;1512;51.486;6.610;2023-02-24T16:31:25;3.70;;;3.10;;
3004;SDS011;1512;51.486;6.610;2023-02-24T16:35:34;10.85;;;4.10;;
3004;SDS011;1512;51.486;6.610;2023-02-24T16:39:44;3.80;;;3.03;;
3004;SDS011;1512;51.486;6.610;2023-02-24T16:43:55;11.93;;;3.27;;
3004;SDS011;1512;51.486;6.610;2023-02-24T16:48:04;4.23;;;2.57;;
3004;SDS011;1512;51.486;6.610;2023-02-24T16:52:15;3.90;;;2.43;;
3004;SDS011;1512;51.486;6.610;2023-02-24T16:56:25;16.37;;;4.13;;
3004;SDS011;1512;51.486;6.610;2023-02-24T17:00:35;5.60;;;3.93;;
3004;SDS011;1512;51.486;6.610;2023-02-24T17:04:45;7.40;;;3.83;;
3004;SDS011;1512;51.486;6.610;2023-02-24T17:08:53;3.63;;;3.20;;
3004;SDS011;1512;51.486;6.610;2023-02-24T17:13:02;6.30;;;2.97;;
3004;SDS011;1512;51.486;6.610;2023-02-24T17:17:10;10.03;;;4.73;;
3004;SDS011;1512;51.486;6.610;2023-02-24T17:21:19;4.83;;;3.70;;
3004;SDS011;1512;51.486;6.610;2023-02-24T17:25:28;8.03;;;3.53;;
3004;SDS011;1512;51.486;6.610;2023-02-24T17:29:38;6.63;;;3.67;;
3004;SDS011;1512;51.486;6.610;2023-02-24T17:33:47;8.00;;;3.53;;
3004;SDS011;1512;51.486;6.610;2023-02-24T17:37:56;3.10;;;2.90;;
3004;SDS011;1512;51.486;6.610;2023-02-24T17:42:05;4.50;;;3.27;;
3004;SDS011;1512;51.486;6.610;2023-02-24T17:46:14;5.47;;;3.43;;
3004;SDS011;1512;51.486;6.610;2023-02-24T17:50:22;10.50;;;3.50;;
3004;SDS011;1512;51.486;6.610;2023-02-24T17:54:31;5.40;;;2.77;;
3004;SDS011;1512;51.486;6.610;2023-02-24T17:58:40;6.53;;;2.83;;
3004;SDS011;1512;51.486;6.610;2023-02-24T18:02:49;3.97;;;2.40;;
3004;SDS011;1512;51.486;6.610;2023-02-24T18:06:59;3.43;;;3.13;;
3004;SDS011;1512;51.486;6.610;2023-02-24T18:11:08;5.70;;;3.20;;
3004;SDS011;1512;51.486;6.610;2023-02-24T18:15:19;2.53;;;2.33;;
3004;SDS011;1512;51.486;6.610;2023-02-24T18:19:28;3.70;;;2.50;;
3004;SDS011;1512;51.486;6.610;2023-02-24T18:23:37;7.10;;;3.10;;
3004;SDS011;1512;51.486;6.610;2023-02-24T18:27:46;4.43;;;2.50;;
3004;SDS011;1512;51.486;6.610;2023-02-24T18:31:54;9.97;;;3.13;;
3004;SDS011;1512;51.486;6.610;2023-02-24T18:36:03;4.80;;;3.20;;
3004;SDS011;1512;51.486;6.610;2023-02-24T18:40:12;6.57;;;2.90;;
3004;SDS011;1512;51.486;6.610;2023-02-24T18:44:21;8.10;;;2.83;;
3004;SDS011;1512;51.486;6.610;2023-02-24T18:52:57;12.60;;;2.63;;
3004;SDS011;1512;51.486;6.610;2023-02-24T18:57:06;4.07;;;2.30;;
3004;SDS011;1512;51.486;6.610;2023-02-24T19:01:19;9.07;;;2.77;;
3004;SDS011;1512;51.486;6.610;2023-02-24T19:05:29;5.10;;;2.60;;
3004;SDS011;1512;51.486;6.610;2023-02-24T19:09:40;2.33;;;2.13;;
3004;SDS011;1512;51.486;6.610;2023-02-24T19:13:48;3.00;;;2.43;;
3004;SDS011;1512;51.486;6.610;2023-02-24T19:17:57;3.13;;;2.80;;
3004;SDS011;1512;51.486;6.610;2023-02-24T19:22:06;2.80;;;2.47;;
3004;SDS011;1512;51.486;6.610;2023-02-24T19:26:22;8.63;;;3.33;;
3004;SDS011;1512;51.486;6.610;2023-02-24T19:30:32;3.40;;;2.30;;
3004;SDS011;1512;51.486;6.610;2023-02-24T19:34:41;8.67;;;3.03;;
3004;SDS011;1512;51.486;6.610;2023-02-24T19:38:50;2.70;;;2.47;;
3004;SDS011;1512;51.486;6.610;2023-02-24T19:42:59;2.30;;;2.10;;
3004;SDS011;1512;51.486;6.610;2023-02-24T19:47:07;4.00;;;2.80;;
3004;SDS011;1512;51.486;6.610;2023-02-24T19:51:21;3.17;;;2.33;;
3004;SDS011;1512;51.486;6.610;2023-02-24T19:55:29;8.83;;;5.07;;
3004;SDS011;1512;51.486;6.610;2023-02-24T19:59:38;12.33;;;3.37;;
3004;SDS011;1512;51.486;6.610;2023-02-24T20:03:47;4.90;;;4.40;;
3004;SDS011;1512;51.486;6.610;2023-02-24T20:07:56;5.60;;;2.90;;
3004;SDS011;1512;51.486;6.610;2023-02-24T20:12:05;10.20;;;3.53;;
3004;SDS011;1512;51.486;6.610;2023-02-24T20:16:14;2.93;;;2.63;;
3004;SDS011;1512;51.486;6.610;2023-02-24T20:20:25;10.20;;;3.50;;
3004;SDS011;1512;51.486;6.610;2023-02-24T20:24:33;2.90;;;2.50;;
3004;SDS011;1512;51.486;6.610;2023-02-24T20:28:43;12.93;;;3.90;;
3004;SDS011;1512;51.486;6.610;2023-02-24T20:32:52;10.60;;;3.20;;
3004;SDS011;1512;51.486;6.610;2023-02-24T20:37:01;5.00;;;3.00;;
3004;SDS011;1512;51.486;6.610;2023-02-24T20:41:11;4.23;;;2.97;;
3004;SDS011;1512;51.486;6.610;2023-02-24T20:45:20;15.70;;;3.20;;
3004;SDS011;1512;51.486;6.610;2023-02-24T20:49:29;4.47;;;3.00;;
3004;SDS011;1512;51.486;6.610;2023-02-24T20:53:38;13.10;;;3.80;;
3004;SDS011;1512;51.486;6.610;2023-02-24T20:57:50;7.97;;;3.60;;
3004;SDS011;1512;51.486;6.610;2023-02-24T21:01:59;6.10;;;3.57;;
3004;SDS011;1512;51.486;6.610;2023-02-24T21:06:11;5.67;;;3.50;;
3004;SDS011;1512;51.486;6.610;2023-02-24T21:10:21;5.33;;;3.30;;
3004;SDS011;1512;51.486;6.610;2023-02-24T21:14:31;11.43;;;4.30;;
3004;SDS011;1512;51.486;6.610;2023-02-24T21:18:41;7.37;;;3.00;;
3004;SDS011;1512;51.486;6.610;2023-02-24T21:22:51;7.77;;;3.03;;
3004;SDS011;1512;51.486;6.610;2023-02-24T21:27:00;6.30;;;3.20;;
3004;SDS011;1512;51.486;6.610;2023-02-24T21:31:13;7.67;;;3.07;;
3004;SDS011;1512;51.486;6.610;2023-02-24T21:35:23;7.10;;;3.20;;
3004;SDS011;1512;51.486;6.610;2023-02-24T21:39:32;6.30;;;2.80;;
3004;SDS011;1512;51.486;6.610;2023-02-24T21:43:41;5.07;;;2.20;;
3004;SDS011;1512;51.486;6.610;2023-02-24T21:47:50;4.83;;;2.57;;
3004;SDS011;1512;51.486;6.610;2023-02-24T21:51:59;8.57;;;2.97;;
3004;SDS011;1512;51.486;6.610;2023-02-24T21:56:14;4.47;;;2.47;;
3004;SDS011;1512;51.486;6.610;2023-02-24T22:00:24;4.53;;;2.77;;
3004;SDS011;1512;51.486;6.610;2023-02-24T22:04:34;4.63;;;2.53;;
3004;SDS011;1512;51.486;6.610;2023-02-24T22:08:43;10.10;;;2.33;;
3004;SDS011;1512;51.486;6.610;2023-02-24T22:12:54;4.10;;;3.60;;
3004;SDS011;1512;51.486;6.610;2023-02-24T22:17:02;8.70;;;2.63;;
3004;SDS011;1512;51.486;6.610;2023-02-24T22:21:12;3.37;;;3.00;;
3004;SDS011;1512;51.486;6.610;2023-02-24T22:25:23;5.20;;;2.90;;
3004;SDS011;1512;51.486;6.610;2023-02-24T22:29:31;6.23;;;3.17;;
3004;SDS011;1512;51.486;6.610;2023-02-24T22:33:40;3.60;;;2.80;;
3004;SDS011;1512;51.486;6.610;2023-02-24T22:37:50;7.00;;;2.80;;
3004;SDS011;1512;51.486;6.610;2023-02-24T22:50:55;3.70;;;2.77;;
3004;SDS011;1512;51.486;6.610;2023-02-24T22:55:06;8.53;;;3.67;;
3004;SDS011;1512;51.486;6.610;2023-02-24T22:59:16;7.23;;;3.10;;
3004;SDS011;1512;51.486;6.610;2023-02-24T23:03:26;5.97;;;2.73;;
3004;SDS011;1512;51.486;6.610;2023-02-24T23:07:37;5.03;;;3.10;;
3004;SDS011;1512;51.486;6.610;2023-02-24T23:16:18;6.80;;;3.20;;
3004;SDS011;1512;51.486;6.610;2023-02-24T23:20:29;7.77;;;3.27;;
3004;SDS011;1512;51.486;6.610;2023-02-24T23:24:38;4.77;;;2.23;;
3004;SDS011;1512;51.486;6.610;2023-02-24T23:33:16;3.97;;;3.30;;
3004;SDS011;1512;51.486;6.610;2023-02-24T23:37:25;8.67;;;2.93;;
3004;SDS011;1512;51.486;6.610;2023-02-24T23:41:34;7.60;;;3.70;;
3004;SDS011;1512;51.486;6.610;2023-02-24T23:50:16;4.90;;;2.77;;
3004;SDS011;1512;51.486;6.610;2023-02-24T23:54:25;12.27;;;4.30;;
3004;SDS011;1512;51.486;6.610;2023-02-24T23:58:34;9.50;;;3.63;;
